Time;durP1;ratioP1;P1;durP2;ratioP2;P2;SDS_P1;SDS_P2;PMS_P1;PMS_P2;Temp;Humidity;BMP_temperature;BMP_pressure;BME280_temperature;BME280_humidity;BME280_pressure;Samples;Min_cycle;Max_cycle;Signal;HPM_P1;HPM_P2
2022/10/05 00:00:19;;;;;;;11.70;6.50;;;15.70;99.90;;;;;;5105144;27;37896;-60
2022/10/05 00:02:48;;;;;;;11.15;6.50;;;15.70;99.90;;;;;;5108345;27;40110;-59
2022/10/05 00:05:25;;;;;;;10.60;6.32;;;15.80;99.90;;;;;;5109862;27;37123;-60
2022/10/05 00:07:56;;;;;;;11.00;6.28;;;15.80;99.90;;;;;;5109540;27;37456;-59
2022/10/05 00:10:24;;;;;;;12.68;6.32;;;15.70;99.90;;;;;;5110656;27;37525;-60
2022/10/05 00:12:51;;;;;;;9.73;5.75;;;15.80;99.90;;;;;;5108440;27;37810;-59
2022/10/05 00:15:20;;;;;;;9.48;5.95;;;15.70;99.90;;;;;;5109414;27;35488;-60
2022/10/05 00:17:47;;;;;;;11.40;6.43;;;15.70;99.90;;;;;;5108915;27;36768;-60
2022/10/05 00:20:21;;;;;;;10.02;5.97;;;15.70;99.90;;;;;;5109108;27;37645;-60
2022/10/05 00:22:50;;;;;;;11.23;6.90;;;15.70;99.90;;;;;;5109102;27;37968;-59
2022/10/05 00:25:21;;;;;;;10.20;5.97;;;15.70;99.90;;;;;;5109591;27;39313;-60
2022/10/05 00:27:55;;;;;;;8.70;5.50;;;15.70;99.90;;;;;;5108199;27;36867;-60
2022/10/05 00:30:23;;;;;;;9.45;5.50;;;15.70;99.90;;;;;;5109498;27;37481;-60
2022/10/05 00:32:51;;;;;;;8.35;5.72;;;15.70;99.90;;;;;;5108056;27;36556;-60
2022/10/05 00:35:19;;;;;;;11.95;5.93;;;15.70;99.90;;;;;;5110124;27;38567;-59
2022/10/05 00:37:52;;;;;;;14.32;5.90;;;15.70;99.90;;;;;;5109179;27;36794;-60
2022/10/05 00:40:32;;;;;;;9.03;4.87;;;15.70;99.90;;;;;;5108656;27;36344;-60
2022/10/05 00:43:17;;;;;;;8.57;5.32;;;15.70;99.90;;;;;;5109666;27;37191;-60
2022/10/05 00:45:50;;;;;;;9.45;5.55;;;15.70;99.90;;;;;;5108182;27;37480;-59
2022/10/05 00:48:27;;;;;;;9.70;4.78;;;15.70;99.90;;;;;;5110020;27;36591;-59
2022/10/05 00:51:04;;;;;;;11.07;5.15;;;15.70;99.90;;;;;;5108913;27;37740;-59
2022/10/05 00:53:41;;;;;;;10.20;5.60;;;15.70;99.90;;;;;;5106738;27;37827;-61
2022/10/05 00:56:22;;;;;;;9.65;4.90;;;15.70;99.90;;;;;;5108729;27;38060;-60
2022/10/05 00:59:03;;;;;;;8.45;4.25;;;15.70;99.90;;;;;;5107207;27;38156;-59
2022/10/05 01:01:36;;;;;;;7.90;4.10;;;15.70;99.90;;;;;;5108908;27;37521;-60
2022/10/05 01:04:08;;;;;;;;;;;15.60;99.90;;;;;;5108394;27;38181;-59
2022/10/05 01:06:48;;;;;;;9.02;4.00;;;15.60;99.90;;;;;;5109241;27;37481;-60
2022/10/05 01:09:26;;;;;;;9.25;4.55;;;15.60;99.90;;;;;;5108664;27;35718;-60
2022/10/05 01:12:03;;;;;;;9.13;4.30;;;15.60;99.90;;;;;;5109990;27;36407;-59
2022/10/05 01:14:36;;;;;;;9.00;4.13;;;15.60;99.90;;;;;;5106545;27;38227;-59
2022/10/05 01:17:06;;;;;;;;;;;15.60;99.90;;;;;;5109333;27;39069;-59
2022/10/05 01:20:03;;;;;;;7.60;3.83;;;15.70;99.90;;;;;;5107859;27;36513;-60
2022/10/05 01:22:40;;;;;;;8.50;4.28;;;15.60;99.90;;;;;;5109295;27;37484;-60
2022/10/05 01:25:20;;;;;;;6.43;4.05;;;15.60;99.90;;;;;;5108586;27;36400;-59
2022/10/05 01:27:59;;;;;;;8.45;4.22;;;15.60;99.90;;;;;;5106339;27;36325;-60
2022/10/05 01:30:29;;;;;;;9.85;4.63;;;15.60;99.90;;;;;;5107681;27;36540;-60
2022/10/05 01:33:01;;;;;;;6.80;3.80;;;15.60;99.90;;;;;;5108105;27;36361;-60
2022/10/05 01:35:37;;;;;;;8.23;3.85;;;15.60;99.90;;;;;;5108413;27;38416;-60
2022/10/05 01:38:27;;;;;;;7.65;4.78;;;15.60;99.90;;;;;;5108011;27;38004;-60
2022/10/05 01:41:02;;;;;;;10.15;5.30;;;15.60;99.90;;;;;;5108855;27;36113;-60
2022/10/05 01:43:41;;;;;;;8.20;4.13;;;15.60;99.90;;;;;;5108259;27;36927;-60
2022/10/05 01:46:21;;;;;;;7.28;4.50;;;15.70;99.90;;;;;;5107908;27;38595;-60
2022/10/05 01:49:04;;;;;;;10.32;5.15;;;15.80;99.90;;;;;;5108527;27;35726;-60
2022/10/05 01:51:42;;;;;;;10.43;5.40;;;15.60;99.90;;;;;;5109063;27;38914;-60
2022/10/05 01:54:22;;;;;;;10.25;5.63;;;15.60;99.90;;;;;;5106835;27;36362;-60
2022/10/05 01:56:58;;;;;;;11.43;5.30;;;15.60;99.90;;;;;;5107724;27;37363;-59
2022/10/05 01:59:40;;;;;;;10.00;5.60;;;15.60;99.90;;;;;;5107925;27;37393;-60
2022/10/05 02:02:11;;;;;;;9.82;5.38;;;15.60;99.90;;;;;;5108763;27;36639;-59
2022/10/05 02:04:44;;;;;;;9.73;5.75;;;15.60;99.90;;;;;;5108013;27;37869;-60
2022/10/05 02:07:16;;;;;;;9.07;5.10;;;15.60;99.90;;;;;;5108127;27;39368;-60
2022/10/05 02:09:48;;;;;;;8.45;4.85;;;15.60;99.90;;;;;;5108841;27;37242;-60
2022/10/05 02:12:19;;;;;;;8.52;5.57;;;15.60;99.90;;;;;;5108895;27;36968;-60
2022/10/05 02:14:52;;;;;;;9.55;5.50;;;15.50;99.90;;;;;;5108191;27;37557;-60
2022/10/05 02:17:24;;;;;;;9.98;5.35;;;15.50;99.90;;;;;;5108531;27;37647;-60
2022/10/05 02:19:56;;;;;;;9.48;5.40;;;15.50;99.90;;;;;;5109666;27;37554;-60
2022/10/05 02:22:28;;;;;;;11.82;5.70;;;15.50;99.90;;;;;;5108712;27;35333;-60
2022/10/05 02:25:00;;;;;;;10.70;5.23;;;15.50;99.90;;;;;;5108321;27;37530;-60
2022/10/05 02:27:31;;;;;;;9.20;5.45;;;15.50;99.90;;;;;;5108022;27;37991;-60
2022/10/05 02:30:04;;;;;;;11.40;5.50;;;15.50;99.90;;;;;;5108089;27;37952;-60
2022/10/05 02:32:37;;;;;;;8.82;5.32;;;15.50;99.90;;;;;;5107120;27;36440;-60
2022/10/05 02:35:12;;;;;;;9.10;5.38;;;15.50;99.90;;;;;;5107339;27;36361;-60
2022/10/05 02:37:49;;;;;;;11.45;5.28;;;15.50;99.90;;;;;;5108150;27;37836;-60
2022/10/05 02:40:25;;;;;;;9.20;5.28;;;15.50;99.90;;;;;;5108326;27;36203;-60
2022/10/05 02:43:00;;;;;;;10.50;5.10;;;15.50;99.90;;;;;;5108242;27;37268;-61
2022/10/05 02:45:37;;;;;;;10.07;5.03;;;15.50;99.90;;;;;;5106705;27;37582;-60
2022/10/05 02:48:11;;;;;;;9.15;5.18;;;15.50;99.90;;;;;;5107558;27;38776;-60
2022/10/05 02:50:48;;;;;;;9.55;4.95;;;15.50;99.90;;;;;;5108054;27;37470;-60
2022/10/05 02:53:24;;;;;;;8.45;4.80;;;15.60;99.90;;;;;;5108538;27;36537;-60
2022/10/05 02:56:03;;;;;;;8.50;4.65;;;15.50;99.90;;;;;;5107438;27;37426;-60
2022/10/05 02:58:41;;;;;;;8.07;4.68;;;15.60;99.90;;;;;;5107206;27;37675;-60
2022/10/05 03:01:16;;;;;;;8.02;4.65;;;15.60;99.90;;;;;;5107656;27;37983;-60
2022/10/05 03:03:50;;;;;;;9.18;4.57;;;15.60;99.90;;;;;;5106447;27;38273;-60
2022/10/05 03:06:22;;;;;;;7.85;4.63;;;15.60;99.90;;;;;;5106935;27;36307;-60
2022/10/05 03:08:56;;;;;;;10.63;5.22;;;15.50;99.90;;;;;;5106429;27;38223;-60
2022/10/05 03:11:30;;;;;;;6.97;3.90;;;15.60;99.90;;;;;;5108343;27;38783;-60
2022/10/05 03:14:05;;;;;;;8.68;4.90;;;15.60;99.90;;;;;;5105310;27;36976;-61
2022/10/05 03:16:53;;;;;;;9.90;4.55;;;15.60;99.90;;;;;;5106772;27;37389;-60
2022/10/05 03:19:32;;;;;;;7.43;4.43;;;15.60;99.90;;;;;;5108234;27;37965;-60
2022/10/05 03:22:06;;;;;;;8.52;4.78;;;15.60;99.90;;;;;;5108600;27;38018;-61
2022/10/05 03:24:46;;;;;;;8.23;4.00;;;15.60;99.90;;;;;;5108081;27;36002;-58
2022/10/05 03:27:25;;;;;;;9.55;4.28;;;15.60;99.90;;;;;;5105327;27;38486;-59
2022/10/05 03:29:57;;;;;;;6.93;3.55;;;15.60;99.90;;;;;;5106254;27;36474;-58
2022/10/05 03:32:34;;;;;;;8.73;4.28;;;15.60;99.90;;;;;;5105059;27;39326;-59
2022/10/05 03:35:09;;;;;;;6.22;3.97;;;15.60;99.90;;;;;;5107153;27;35347;-58
2022/10/05 03:37:47;;;;;;;11.23;3.88;;;15.60;99.90;;;;;;5109183;27;38917;-58
2022/10/05 03:40:25;;;;;;;6.88;3.33;;;15.60;99.90;;;;;;5111965;27;38112;-59
2022/10/05 03:43:01;;;;;;;7.97;4.18;;;15.60;99.90;;;;;;5108448;27;38639;-59
2022/10/05 03:45:34;;;;;;;6.20;3.40;;;15.60;99.90;;;;;;5111612;27;36285;-59
2022/10/05 03:48:08;;;;;;;7.28;3.72;;;15.60;99.90;;;;;;5110538;27;37501;-59
2022/10/05 03:50:40;;;;;;;;;;;15.60;99.90;;;;;;5112177;27;37735;-58
2022/10/05 03:53:15;;;;;;;8.68;3.50;;;15.60;99.90;;;;;;5111757;27;37382;-59
2022/10/05 03:55:48;;;;;;;7.45;3.20;;;15.60;99.90;;;;;;5109135;27;36327;-58
2022/10/05 03:58:20;;;;;;;14.80;3.30;;;15.60;99.90;;;;;;5110009;27;36321;-58
2022/10/05 04:00:51;;;;;;;8.32;3.83;;;15.60;99.90;;;;;;5110046;27;37619;-58
2022/10/05 04:03:23;;;;;;;8.82;3.45;;;15.60;99.90;;;;;;5109904;27;37181;-58
2022/10/05 04:05:55;;;;;;;7.03;3.05;;;15.50;99.90;;;;;;5111003;27;37208;-58
2022/10/05 04:08:28;;;;;;;8.75;3.45;;;15.60;99.90;;;;;;5109684;27;38320;-59
2022/10/05 04:10:58;;;;;;;6.05;2.95;;;15.60;99.90;;;;;;5108174;27;37522;-58
2022/10/05 04:13:32;;;;;;;5.97;3.17;;;15.60;99.90;;;;;;5108824;27;37716;-58
2022/10/05 04:16:04;;;;;;;5.60;3.47;;;15.60;99.90;;;;;;5110409;27;37636;-60
2022/10/05 04:18:36;;;;;;;8.82;3.42;;;15.50;99.90;;;;;;5108341;27;38566;-61
2022/10/05 04:21:09;;;;;;;9.27;3.70;;;15.60;99.90;;;;;;5109922;27;37981;-60
2022/10/05 04:23:47;;;;;;;7.55;3.60;;;15.50;99.90;;;;;;5109449;27;36191;-60
2022/10/05 04:26:20;;;;;;;5.75;3.30;;;15.60;99.90;;;;;;5111155;27;37267;-60
2022/10/05 04:28:54;;;;;;;8.27;4.38;;;15.50;99.90;;;;;;5108471;27;37392;-60
2022/10/05 04:31:35;;;;;;;8.70;4.53;;;15.50;99.90;;;;;;5110584;27;37748;-60
2022/10/05 04:34:14;;;;;;;7.82;3.85;;;15.50;99.90;;;;;;5108921;27;38517;-60
2022/10/05 04:36:52;;;;;;;6.53;3.47;;;15.50;99.90;;;;;;5107890;27;36876;-61
2022/10/05 04:39:26;;;;;;;8.48;3.38;;;15.50;99.90;;;;;;5110540;27;36397;-60
2022/10/05 04:42:06;;;;;;;6.35;3.67;;;15.50;99.90;;;;;;5106353;27;36399;-60
2022/10/05 04:44:59;;;;;;;6.70;3.80;;;15.50;99.90;;;;;;5106333;27;37627;-61
2022/10/05 04:47:44;;;;;;;7.00;3.80;;;15.50;99.90;;;;;;5106886;27;36518;-60
2022/10/05 04:50:23;;;;;;;11.20;4.03;;;15.50;99.90;;;;;;5104245;27;39024;-60
2022/10/05 04:52:57;;;;;;;8.13;4.05;;;15.50;99.90;;;;;;5107052;27;38725;-60
2022/10/05 04:55:30;;;;;;;10.13;4.43;;;15.50;99.90;;;;;;5108301;27;37622;-61
2022/10/05 04:58:08;;;;;;;7.35;4.40;;;15.50;99.90;;;;;;5108821;27;36662;-60
2022/10/05 05:00:49;;;;;;;8.23;4.35;;;15.50;99.90;;;;;;5107033;27;36693;-60
2022/10/05 05:03:35;;;;;;;7.90;4.90;;;15.50;99.90;;;;;;5107400;27;38764;-60
2022/10/05 05:06:17;;;;;;;9.10;4.90;;;15.50;99.90;;;;;;5106234;27;37702;-61
2022/10/05 05:09:17;;;;;;;9.45;4.60;;;15.40;99.90;;;;;;5104464;27;36360;-60
2022/10/05 05:11:54;;;;;;;10.88;5.07;;;15.40;99.90;;;;;;5105782;27;36353;-60
2022/10/05 05:14:40;;;;;;;9.02;4.82;;;15.40;99.90;;;;;;5105114;27;39097;-60
2022/10/05 05:17:23;;;;;;;9.02;5.22;;;15.40;99.90;;;;;;5102306;27;37345;-60
2022/10/05 05:20:02;;;;;;;10.13;5.25;;;15.40;99.90;;;;;;5105261;27;36375;-60
2022/10/05 05:22:38;;;;;;;10.00;5.10;;;15.40;99.90;;;;;;5106411;27;37590;-60
2022/10/05 05:25:28;;;;;;;8.45;5.57;;;15.40;99.90;;;;;;5105649;27;39313;-60
2022/10/05 05:28:01;;;;;;;8.98;5.30;;;15.40;99.90;;;;;;5104899;27;37262;-61
2022/10/05 05:30:37;;;;;;;9.57;5.50;;;15.40;99.90;;;;;;5105149;27;36828;-61
2022/10/05 05:33:17;;;;;;;8.95;4.88;;;15.40;99.90;;;;;;5108499;27;38314;-61
2022/10/05 05:36:20;;;;;;;9.95;5.53;;;15.40;99.90;;;;;;5107414;27;36517;-60
2022/10/05 05:38:55;;;;;;;9.90;5.57;;;15.40;99.90;;;;;;5103335;27;37213;-61
2022/10/05 05:41:29;;;;;;;8.90;5.32;;;15.40;99.90;;;;;;5107210;27;38109;-61
2022/10/05 05:44:08;;;;;;;9.90;5.70;;;15.40;99.90;;;;;;5105274;27;37459;-60
2022/10/05 05:46:38;;;;;;;9.38;5.30;;;15.40;99.90;;;;;;5107561;27;37513;-61
2022/10/05 05:49:13;;;;;;;8.45;5.53;;;15.40;99.90;;;;;;5106815;27;37856;-59
2022/10/05 05:51:47;;;;;;;10.27;5.85;;;15.40;99.90;;;;;;5107260;27;37419;-59
2022/10/05 05:54:27;;;;;;;8.23;5.18;;;15.40;99.90;;;;;;5108324;27;39000;-59
2022/10/05 05:57:03;;;;;;;10.20;5.40;;;15.40;99.90;;;;;;5108245;27;38149;-59
2022/10/05 05:59:46;;;;;;;10.90;5.13;;;15.40;99.90;;;;;;5108623;27;37972;-59
2022/10/05 06:02:17;;;;;;;;;;;15.40;99.90;;;;;;5108088;27;38943;-59
2022/10/05 06:04:49;;;;;;;10.60;5.07;;;15.40;99.90;;;;;;5107387;27;37901;-59
2022/10/05 06:07:21;;;;;;;9.50;5.30;;;15.40;99.90;;;;;;5107764;27;38453;-59
2022/10/05 06:09:54;;;;;;;10.40;6.03;;;15.40;99.90;;;;;;5107586;27;37630;-58
2022/10/05 06:12:25;;;;;;;8.32;5.68;;;15.40;99.90;;;;;;5104168;27;35282;-59
2022/10/05 06:14:56;;;;;;;8.10;5.40;;;15.40;99.90;;;;;;5104414;27;38994;-58
2022/10/05 06:17:32;;;;;;;10.90;6.38;;;15.30;99.90;;;;;;5107436;27;37742;-59
2022/10/05 06:20:02;;;;;;;10.45;5.35;;;15.40;99.90;;;;;;5107412;27;36342;-58
2022/10/05 06:22:35;;;;;;;10.73;6.68;;;15.40;99.90;;;;;;5108309;27;35875;-59
2022/10/05 06:25:17;;;;;;;11.57;6.07;;;15.40;99.90;;;;;;5107909;27;38979;-59
2022/10/05 06:28:01;;;;;;;9.85;5.50;;;15.40;99.90;;;;;;5106743;27;37901;-59
2022/10/05 06:30:31;;;;;;;;;;;15.40;99.90;;;;;;5106558;27;38318;-58
2022/10/05 06:33:11;;;;;;;8.02;5.15;;;15.30;99.90;;;;;;5106721;27;36780;-58
2022/10/05 06:35:52;;;;;;;10.13;5.38;;;15.40;99.90;;;;;;5106473;27;38217;-58
2022/10/05 06:38:43;;;;;;;8.70;5.07;;;15.40;99.90;;;;;;5107346;27;38727;-58
2022/10/05 06:41:19;;;;;;;7.82;4.47;;;15.40;99.90;;;;;;5107644;27;38021;-58
2022/10/05 06:43:57;;;;;;;10.85;5.15;;;15.40;99.90;;;;;;5106571;27;37885;-59
2022/10/05 06:46:29;;;;;;;9.48;4.40;;;15.40;99.90;;;;;;5107333;27;38428;-58
2022/10/05 06:49:16;;;;;;;10.32;4.95;;;15.40;99.90;;;;;;5105152;27;38817;-59
2022/10/05 06:51:51;;;;;;;9.48;5.10;;;15.40;99.90;;;;;;5107338;27;37293;-58
2022/10/05 06:54:29;;;;;;;8.63;4.95;;;15.40;99.90;;;;;;5106813;27;36625;-59
2022/10/05 06:57:07;;;;;;;8.68;4.60;;;15.40;99.90;;;;;;5106395;27;36318;-58
2022/10/05 06:59:45;;;;;;;10.40;5.05;;;15.40;99.90;;;;;;5106590;27;39323;-59
2022/10/05 07:02:21;;;;;;;7.47;4.65;;;15.40;99.90;;;;;;5107051;27;37594;-58
2022/10/05 07:05:01;;;;;;;12.57;5.15;;;15.40;99.90;;;;;;5097001;27;36166;-58
2022/10/05 07:07:38;;;;;;;7.72;4.10;;;15.40;99.90;;;;;;5099895;27;38381;-59
2022/10/05 07:10:21;;;;;;;7.22;4.70;;;15.40;99.90;;;;;;5098659;27;37593;-58
2022/10/05 07:13:08;;;;;;;7.25;4.20;;;15.40;99.90;;;;;;5101252;27;38220;-58
2022/10/05 07:15:49;;;;;;;7.30;4.28;;;15.40;99.90;;;;;;5098425;27;35400;-59
2022/10/05 07:18:39;;;;;;;8.70;4.70;;;15.50;99.90;;;;;;5100809;27;36481;-59
2022/10/05 07:21:13;;;;;;;7.68;4.03;;;15.40;99.90;;;;;;5105598;27;37665;-59
2022/10/05 07:23:58;;;;;;;7.13;3.95;;;15.40;99.90;;;;;;5106791;27;36286;-59
2022/10/05 07:26:33;;;;;;;7.95;4.55;;;15.50;99.90;;;;;;5106377;27;36544;-58
2022/10/05 07:29:18;;;;;;;7.32;3.88;;;15.50;99.90;;;;;;5106695;27;37961;-58
2022/10/05 07:31:55;;;;;;;7.47;4.25;;;15.50;99.90;;;;;;5107151;27;37823;-58
2022/10/05 07:34:31;;;;;;;17.02;5.05;;;15.50;99.90;;;;;;5106142;27;39833;-58
2022/10/05 07:39:58;;;;;;;7.35;4.18;;;15.50;99.90;;;;;;5108493;27;38274;-58
2022/10/05 07:42:40;;;;;;;8.32;3.85;;;15.50;99.90;;;;;;5107244;27;37876;-59
2022/10/05 07:45:17;;;;;;;5.22;3.13;;;15.50;99.90;;;;;;5107512;27;38090;-59
2022/10/05 07:47:52;;;;;;;7.03;3.60;;;15.60;99.90;;;;;;5108171;27;36777;-59
2022/10/05 07:50:26;;;;;;;6.47;3.33;;;15.60;99.90;;;;;;5107726;27;40283;-59
2022/10/05 07:52:57;;;;;;;8.18;3.20;;;15.60;99.90;;;;;;5107231;27;38777;-58
2022/10/05 07:55:26;;;;;;;8.43;3.38;;;15.60;99.90;;;;;;5106456;27;37973;-59
2022/10/05 07:58:05;;;;;;;6.30;2.80;;;15.60;99.90;;;;;;5107075;27;36353;-59
2022/10/05 08:00:53;;;;;;;4.93;2.53;;;15.70;99.90;;;;;;5107178;27;38061;-59
2022/10/05 08:03:30;;;;;;;5.53;2.50;;;15.60;99.90;;;;;;5106146;27;37739;-58
2022/10/05 08:05:59;;;;;;;5.43;2.65;;;15.60;99.90;;;;;;5107851;27;38220;-58
2022/10/05 08:08:35;;;;;;;6.20;2.78;;;15.70;99.90;;;;;;5108070;27;38184;-59
2022/10/05 08:11:10;;;;;;;5.50;2.80;;;15.70;99.90;;;;;;5107400;27;37935;-58
2022/10/05 08:13:42;;;;;;;5.13;2.00;;;15.70;99.90;;;;;;5107268;27;39153;-58
2022/10/05 08:16:13;;;;;;;6.70;2.60;;;15.70;99.90;;;;;;5107505;27;36108;-58
2022/10/05 08:18:52;;;;;;;3.20;1.98;;;15.70;99.90;;;;;;5107078;27;38476;-58
2022/10/05 08:21:25;;;;;;;3.88;1.65;;;15.70;99.90;;;;;;5105838;27;37520;-59
2022/10/05 08:23:56;;;;;;;4.30;1.67;;;15.80;99.90;;;;;;5110466;27;37377;-58
2022/10/05 08:26:32;;;;;;;5.03;2.38;;;15.80;99.90;;;;;;5110304;27;36285;-59
2022/10/05 08:29:09;;;;;;;5.65;1.65;;;15.80;99.90;;;;;;5109412;27;35953;-58
2022/10/05 08:31:39;;;;;;;4.40;1.40;;;15.80;99.90;;;;;;5109126;27;35748;-59
2022/10/05 08:34:22;;;;;;;5.25;1.65;;;15.90;99.90;;;;;;5109282;27;37952;-59
2022/10/05 08:36:58;;;;;;;2.70;1.20;;;15.90;99.90;;;;;;5110084;27;37314;-58
2022/10/05 08:39:29;;;;;;;4.45;1.52;;;16.00;99.90;;;;;;5110126;27;38154;-58
2022/10/05 08:42:38;;;;;;;5.80;1.73;;;16.00;99.90;;;;;;5109390;27;37405;-59
2022/10/05 08:45:44;;;;;;;5.88;1.45;;;16.00;99.90;;;;;;5110662;27;36632;-59
2022/10/05 08:48:57;;;;;;;5.55;1.50;;;16.10;99.90;;;;;;5109661;27;37332;-58
2022/10/05 08:51:56;;;;;;;4.35;1.55;;;16.10;99.90;;;;;;5110694;27;36377;-59
2022/10/05 08:54:51;;;;;;;5.22;1.67;;;16.20;99.90;;;;;;5110085;27;37472;-59
2022/10/05 08:57:46;;;;;;;6.03;1.58;;;16.20;99.90;;;;;;5106779;27;37979;-59
2022/10/05 09:00:17;;;;;;;4.63;2.30;;;16.20;99.90;;;;;;5108791;27;38901;-59
2022/10/05 09:03:11;;;;;;;5.03;1.50;;;16.20;99.90;;;;;;5110197;27;37501;-58
2022/10/05 09:06:13;;;;;;;3.03;1.15;;;16.30;99.90;;;;;;5110561;27;36286;-59
2022/10/05 09:09:25;;;;;;;6.07;2.00;;;16.30;99.90;;;;;;5106114;27;37594;-58
2022/10/05 09:12:17;;;;;;;4.95;2.13;;;16.40;99.90;;;;;;5045678;28;38679;-59
2022/10/05 09:14:57;;;;;;;5.57;2.30;;;16.40;99.90;;;;;;5109958;27;35376;-59
2022/10/05 09:17:50;;;;;;;5.35;2.47;;;16.50;99.90;;;;;;5109789;27;37021;-59
2022/10/05 09:20:31;;;;;;;5.43;2.30;;;16.60;99.90;;;;;;5109253;27;40057;-59
2022/10/05 09:23:12;;;;;;;5.00;2.28;;;16.60;99.90;;;;;;5109571;27;36000;-59
2022/10/05 09:25:53;;;;;;;4.30;2.22;;;16.70;99.90;;;;;;5109712;27;35466;-59
2022/10/05 09:28:34;;;;;;;6.25;2.78;;;16.70;99.90;;;;;;5110074;27;38194;-58
2022/10/05 09:31:20;;;;;;;6.60;2.65;;;16.70;99.90;;;;;;5110065;27;39594;-59
2022/10/05 09:34:29;;;;;;;4.85;2.53;;;16.70;99.90;;;;;;5108617;27;37496;-59
2022/10/05 09:37:25;;;;;;;6.18;2.92;;;16.70;99.90;;;;;;5061804;27;36213;-59
2022/10/05 09:40:23;;;;;;;8.88;2.83;;;16.70;99.90;;;;;;5110184;27;37344;-59
2022/10/05 09:43:17;;;;;;;7.28;3.00;;;16.70;99.90;;;;;;5109562;27;37796;-58
2022/10/05 09:46:20;;;;;;;4.75;2.83;;;16.70;99.90;;;;;;5110278;27;37496;-58
2022/10/05 09:49:17;;;;;;;5.88;3.00;;;16.80;99.90;;;;;;5109903;27;35347;-58
2022/10/05 09:52:13;;;;;;;6.40;3.03;;;16.80;99.90;;;;;;5109842;27;37626;-59
2022/10/05 09:55:12;;;;;;;6.93;3.22;;;16.90;99.90;;;;;;5109090;27;38238;-59
2022/10/05 09:58:15;;;;;;;8.52;2.65;;;16.90;99.90;;;;;;5108983;27;37086;-58
2022/10/05 10:01:07;;;;;;;5.70;2.47;;;16.90;99.90;;;;;;5107752;27;36568;-59
2022/10/05 10:04:13;;;;;;;4.97;2.42;;;17.00;99.90;;;;;;5106586;27;38463;-59
2022/10/05 10:06:56;;;;;;;11.23;2.92;;;17.00;99.90;;;;;;5107311;27;36464;-59
2022/10/05 10:09:36;;;;;;;5.47;2.53;;;17.00;99.90;;;;;;5106561;27;37640;-58
2022/10/05 10:12:20;;;;;;;7.22;2.50;;;17.00;99.90;;;;;;5108313;27;38306;-59
2022/10/05 10:15:41;;;;;;;4.78;2.40;;;17.00;99.90;;;;;;5107082;27;37236;-59
2022/10/05 10:18:35;;;;;;;8.00;2.63;;;17.00;99.90;;;;;;5033623;28;38930;-59
2022/10/05 10:21:21;;;;;;;7.10;2.05;;;17.00;99.90;;;;;;5102105;27;38175;-59
2022/10/05 10:24:05;;;;;;;5.45;2.50;;;17.00;99.90;;;;;;5104656;27;37501;-59
2022/10/05 10:27:15;;;;;;;3.38;2.00;;;17.00;99.90;;;;;;5106570;27;38058;-59
2022/10/05 10:30:17;;;;;;;6.38;2.00;;;17.00;99.90;;;;;;5100742;27;38251;-59
2022/10/05 10:33:14;;;;;;;5.63;2.30;;;16.90;99.90;;;;;;5106223;27;37662;-59
2022/10/05 10:35:50;;;;;;;4.22;2.15;;;16.90;99.90;;;;;;5095618;27;36694;-59
2022/10/05 10:38:35;;;;;;;6.13;2.40;;;16.80;99.90;;;;;;5106319;27;37668;-59
2022/10/05 10:41:32;;;;;;;4.65;2.40;;;16.80;99.90;;;;;;5105080;27;37964;-59
2022/10/05 10:44:28;;;;;;;5.28;2.33;;;16.80;99.90;;;;;;5105452;27;36268;-59
2022/10/05 10:47:24;;;;;;;5.55;2.42;;;16.70;99.90;;;;;;5103936;27;36915;-59
2022/10/05 10:50:15;;;;;;;3.92;2.28;;;16.70;99.90;;;;;;5103841;27;36261;-59
2022/10/05 10:52:55;;;;;;;6.32;2.50;;;16.70;99.90;;;;;;5103326;27;38464;-59
2022/10/05 10:55:33;;;;;;;7.10;2.40;;;16.60;99.90;;;;;;5103861;27;38333;-59
2022/10/05 10:58:44;;;;;;;5.32;2.47;;;16.60;99.90;;;;;;5103619;27;37441;-59
2022/10/05 11:01:30;;;;;;;4.35;2.30;;;16.60;99.90;;;;;;5100553;27;37455;-59
2022/10/05 11:04:36;;;;;;;6.55;2.60;;;16.60;99.90;;;;;;5104307;27;37556;-59
2022/10/05 11:07:35;;;;;;;5.35;2.40;;;16.50;99.90;;;;;;5103728;27;38757;-59
2022/10/05 11:10:19;;;;;;;4.05;2.22;;;16.60;99.90;;;;;;5103717;27;38479;-59
2022/10/05 11:13:13;;;;;;;5.65;2.63;;;16.50;99.90;;;;;;5104740;27;36964;-59
2022/10/05 11:16:07;;;;;;;5.43;2.60;;;16.60;99.90;;;;;;5099715;27;36789;-59
2022/10/05 11:18:48;;;;;;;11.27;3.17;;;16.50;99.90;;;;;;5104314;27;37344;-59
2022/10/05 11:21:32;;;;;;;5.60;2.63;;;16.60;99.90;;;;;;5104259;27;35841;-59
2022/10/05 11:24:28;;;;;;;6.70;2.97;;;16.50;99.90;;;;;;5102902;27;37443;-59
2022/10/05 11:27:25;;;;;;;5.22;2.72;;;16.50;99.90;;;;;;5099741;27;38713;-59
2022/10/05 11:30:26;;;;;;;5.38;2.70;;;16.50;99.90;;;;;;5103011;27;37414;-59
2022/10/05 11:33:41;;;;;;;4.75;2.20;;;16.50;99.90;;;;;;5102963;27;35628;-59
2022/10/05 11:36:40;;;;;;;4.40;2.50;;;16.50;99.90;;;;;;5103791;27;39780;-59
2022/10/05 11:39:37;;;;;;;6.45;2.60;;;16.50;99.90;;;;;;5101991;27;37614;-59
2022/10/05 11:42:38;;;;;;;3.75;2.25;;;16.40;99.90;;;;;;5096407;27;37020;-59
2022/10/05 11:45:21;;;;;;;4.93;2.53;;;16.40;99.90;;;;;;5103046;27;36483;-59
2022/10/05 11:48:19;;;;;;;4.85;2.42;;;16.40;99.90;;;;;;5102802;27;39555;-59
2022/10/05 11:51:04;;;;;;;4.72;2.42;;;16.40;99.90;;;;;;5102390;27;38136;-59
2022/10/05 11:53:39;;;;;;;5.00;2.45;;;16.50;99.90;;;;;;5100773;27;37614;-59
2022/10/05 11:56:16;;;;;;;4.82;2.35;;;16.50;99.90;;;;;;5101802;27;36725;-59
2022/10/05 11:58:53;;;;;;;4.68;2.35;;;16.50;99.90;;;;;;5104782;27;37494;-59
2022/10/05 12:01:28;;;;;;;5.65;2.88;;;16.40;99.90;;;;;;5108340;27;38864;-59
2022/10/05 12:04:06;;;;;;;5.35;2.53;;;16.50;99.90;;;;;;5108333;27;38951;-59
2022/10/05 12:06:51;;;;;;;4.35;2.50;;;16.50;99.90;;;;;;5109403;27;36785;-59
2022/10/05 12:10:13;;;;;;;5.50;2.67;;;16.50;99.90;;;;;;5107096;27;38933;-59
2022/10/05 12:12:36;;;;;;;5.20;2.28;;;16.40;99.90;;;;;;5108620;27;38165;-59
2022/10/05 12:15:14;;;;;;;4.38;2.17;;;16.40;99.90;;;;;;5108653;27;36855;-58
2022/10/05 12:17:47;;;;;;;5.85;2.60;;;16.40;99.90;;;;;;5108743;27;35446;-59
2022/10/05 12:20:19;;;;;;;4.23;2.33;;;16.40;99.90;;;;;;5107771;27;39192;-59
2022/10/05 12:22:53;;;;;;;5.72;2.38;;;16.40;99.90;;;;;;5107080;27;37645;-59
2022/10/05 12:25:27;;;;;;;6.15;2.58;;;16.50;99.90;;;;;;5106714;27;36963;-59
2022/10/05 12:27:58;;;;;;;6.03;2.38;;;16.50;99.90;;;;;;5107386;27;36291;-59
2022/10/05 12:30:32;;;;;;;6.47;2.78;;;16.50;99.90;;;;;;5106042;27;38134;-59
2022/10/05 12:33:02;;;;;;;;;;;16.50;99.90;;;;;;5108552;27;37779;-59
2022/10/05 12:35:33;;;;;;;6.78;2.65;;;16.50;99.90;;;;;;5106022;27;37361;-59
2022/10/05 12:38:09;;;;;;;5.65;2.83;;;16.50;99.90;;;;;;5108208;27;36035;-61
2022/10/05 12:40:44;;;;;;;7.45;2.88;;;16.60;99.90;;;;;;5108388;27;37558;-60
2022/10/05 12:43:24;;;;;;;7.70;3.03;;;16.60;99.90;;;;;;5106960;27;37517;-60
2022/10/05 12:46:04;;;;;;;7.00;3.38;;;16.60;99.90;;;;;;5108121;27;37745;-60
2022/10/05 12:48:51;;;;;;;5.70;2.95;;;16.60;99.90;;;;;;5107351;27;36427;-60
2022/10/05 12:51:25;;;;;;;6.82;3.17;;;16.60;99.90;;;;;;5107665;27;37537;-60
2022/10/05 12:53:59;;;;;;;6.57;2.95;;;16.60;99.90;;;;;;5106847;27;38414;-60
2022/10/05 12:56:36;;;;;;;6.50;3.40;;;16.60;99.90;;;;;;5108706;27;37970;-60
2022/10/05 12:59:14;;;;;;;7.25;3.30;;;16.60;99.90;;;;;;5107509;27;37578;-60
2022/10/05 13:01:48;;;;;;;8.35;3.20;;;16.60;99.90;;;;;;5105380;27;39659;-60
2022/10/05 13:04:25;;;;;;;6.05;2.92;;;16.60;99.90;;;;;;5107148;27;38366;-60
2022/10/05 13:07:06;;;;;;;6.15;2.90;;;16.50;99.90;;;;;;5106818;27;38637;-60
2022/10/05 13:09:39;;;;;;;5.88;2.90;;;16.60;99.90;;;;;;5103872;27;38928;-60
2022/10/05 13:12:19;;;;;;;10.07;3.03;;;16.50;99.90;;;;;;5106792;27;37366;-60
2022/10/05 13:14:55;;;;;;;7.50;2.92;;;16.60;99.90;;;;;;5105305;27;38586;-59
2022/10/05 13:17:34;;;;;;;8.00;3.08;;;16.50;99.90;;;;;;5105547;27;38110;-59
2022/10/05 13:20:11;;;;;;;6.50;2.92;;;16.50;99.90;;;;;;5107136;27;36510;-59
2022/10/05 13:22:43;;;;;;;5.07;2.72;;;16.60;99.90;;;;;;5109894;27;39211;-59
2022/10/05 13:25:26;;;;;;;6.82;3.17;;;16.60;99.90;;;;;;5109616;27;37593;-59
2022/10/05 13:28:14;;;;;;;6.32;3.17;;;16.60;99.90;;;;;;5109397;27;37769;-59
2022/10/05 13:30:51;;;;;;;5.30;2.83;;;16.60;99.90;;;;;;5106125;27;35267;-59
2022/10/05 13:33:28;;;;;;;5.63;2.90;;;16.60;99.90;;;;;;5106244;27;37674;-59
2022/10/05 13:36:03;;;;;;;6.03;2.90;;;16.60;99.90;;;;;;5108635;27;37700;-59
2022/10/05 13:38:44;;;;;;;5.70;2.75;;;16.60;99.90;;;;;;5107843;27;37595;-59
2022/10/05 13:41:22;;;;;;;4.55;2.53;;;16.60;99.90;;;;;;5107842;27;38665;-59
2022/10/05 13:44:03;;;;;;;5.68;2.88;;;16.70;99.90;;;;;;5107680;27;38980;-59
2022/10/05 13:46:37;;;;;;;6.22;2.70;;;16.70;99.90;;;;;;5104048;27;36546;-59
2022/10/05 13:49:21;;;;;;;5.35;3.00;;;16.70;99.90;;;;;;5107841;27;36193;-60
2022/10/05 13:51:56;;;;;;;6.28;2.80;;;16.70;99.90;;;;;;5108868;27;36958;-60
2022/10/05 13:54:32;;;;;;;6.95;3.33;;;16.80;99.90;;;;;;5106259;27;36366;-60